TimeEDT,TemperatureF,Dew PointF,Humidity,Sea Level PressureIn,VisibilityMPH,Wind Direction,Wind SpeedMPH,Gust SpeedMPH,PrecipitationIn,Events,Conditions,WindDirDegrees,DateUTC
12:47 AM,62.6,57.2,82,30.05,10.0,NE,5.8,-,N/A,,Mostly Cloudy,50,2013-10-12 04:47:00
12:54 AM,62.1,57.0,84,30.06,10.0,NNE,6.9,-,N/A,,Mostly Cloudy,30,2013-10-12 04:54:00
1:13 AM,62.6,57.2,82,30.05,10.0,NNE,6.9,-,N/A,,Scattered Clouds,20,2013-10-12 05:13:00
1:54 AM,61.0,57.0,87,30.07,10.0,North,6.9,-,N/A,,Mostly Cloudy,360,2013-10-12 05:54:00
2:54 AM,62.1,55.0,78,30.07,10.0,NE,8.1,-,N/A,,Mostly Cloudy,50,2013-10-12 06:54:00
3:54 AM,62.1,53.1,72,30.08,10.0,NE,8.1,-,N/A,,Overcast,40,2013-10-12 07:54:00
4:54 AM,62.1,48.0,60,30.09,10.0,NNE,6.9,-,N/A,,Overcast,30,2013-10-12 08:54:00
5:54 AM,60.1,48.0,64,30.11,10.0,NNE,4.6,-,N/A,,Mostly Cloudy,20,2013-10-12 09:54:00
6:54 AM,60.1,44.1,55,30.11,10.0,ENE,6.9,-,N/A,,Mostly Cloudy,60,2013-10-12 10:54:00
7:54 AM,59.0,44.1,58,30.13,10.0,NE,6.9,-,N/A,,Overcast,40,2013-10-12 11:54:00
8:54 AM,61.0,43.0,52,30.14,10.0,NE,8.1,-,N/A,,Scattered Clouds,40,2013-10-12 12:54:00
9:54 AM,63.0,43.0,48,30.16,10.0,NE,6.9,-,N/A,,Overcast,40,2013-10-12 13:54:00
10:54 AM,64.0,41.0,43,30.17,10.0,NE,5.8,-,N/A,,Overcast,50,2013-10-12 14:54:00
11:54 AM,64.9,43.0,45,30.17,10.0,NE,9.2,-,N/A,,Mostly Cloudy,40,2013-10-12 15:54:00
12:54 PM,71.1,44.1,38,30.15,10.0,NNE,8.1,-,N/A,,Partly Cloudy,30,2013-10-12 16:54:00
1:54 PM,72.0,43.0,35,30.13,10.0,NNE,11.5,-,N/A,,Clear,20,2013-10-12 17:54:00
2:54 PM,71.1,44.1,38,30.14,10.0,ENE,11.5,-,N/A,,Overcast,70,2013-10-12 18:54:00
3:54 PM,70.0,46.0,42,30.15,10.0,East,10.4,-,N/A,,Overcast,100,2013-10-12 19:54:00
4:54 PM,70.0,48.9,47,30.15,10.0,ENE,5.8,-,N/A,,Overcast,70,2013-10-12 20:54:00
5:54 PM,69.1,53.1,57,30.17,10.0,ESE,5.8,-,N/A,,Scattered Clouds,110,2013-10-12 21:54:00
6:54 PM,66.9,53.1,61,30.19,10.0,East,5.8,-,N/A,,Mostly Cloudy,80,2013-10-12 22:54:00
7:54 PM,64.9,46.9,52,30.20,10.0,NE,4.6,-,N/A,,Scattered Clouds,40,2013-10-12 23:54:00
8:54 PM,66.0,45.0,47,30.21,10.0,East,4.6,-,N/A,,Overcast,80,2013-10-13 00:54:00
9:54 PM,64.0,48.9,58,30.23,10.0,ENE,5.8,-,N/A,,Mostly Cloudy,60,2013-10-13 01:54:00
10:54 PM,63.0,52.0,67,30.25,10.0,ENE,10.4,-,N/A,,Overcast,70,2013-10-13 02:54:00
11:27 PM,62.6,53.6,72,30.23,10.0,East,6.9,-,N/A,,Overcast,80,2013-10-13 03:27:00
11:54 PM,63.0,53.1,70,30.24,10.0,ENE,8.1,-,N/A,,Overcast,70,2013-10-13 03:54:00